Latest Weather Observations for Laverton

IDW60801

Issued at 3:05 pm WST Tuesday 16 September 2014 (issued every 30 minutes, with the page automatically refreshed every 10 minutes)

About weather observations | Map of weather stations | Latest weather observations for WA | Other Formats
Station Details ID: 012305 Name: LAVERTON AERO Lat: -28.61 Lon: 122.42 Height: 464.3 m
Data from the previous 72 hours. | See also: Recent months at Laverton
Date/Time
WST
Temp
°C
App
Temp
°C
Dew
Point
Rel
Hum
%
Delta-T
°C
Wind Press
QNH
hPa
Press
MSL
hPa
Rain
since 9 am
mm
Dir
 
Spd
km/h
Gust
km/h
Spd
kts
Gust
kts
16/03:00pm 25.4 19.6 4.5 26 10.7 ENE 24 37 13 20 1017.1 1015.9 0.0
16/02:30pm 25.1 19.3 4.3 26 10.6 ENE 24 33 13 18 1017.3 1016.1 0.0
16/02:00pm 25.9 20.2 4.9 26 10.9 ENE 24 37 13 20 1018.0 1016.8 0.0
16/01:30pm 24.4 19.9 4.2 27 10.2 E 17 28 9 15 1018.4 1017.2 0.0
16/01:00pm 23.0 17.9 4.0 29 9.5 SE 20 26 11 14 1018.6 1017.4 0.0
16/12:30pm 22.3 18.6 4.4 31 9.0 ESE 13 19 7 10 1019.2 1018.0 0.0
16/12:00pm 22.2 17.7 4.3 31 8.9 ENE 17 22 9 12 1019.4 1018.2 0.0
16/11:30am 22.6 16.8 4.6 31 9.1 E 24 32 13 17 1018.9 1017.7 0.0
16/11:00am 21.7 15.4 3.9 31 8.8 E 26 33 14 18 1019.1 1017.9 0.0
16/10:30am 20.6 13.9 3.8 33 8.2 ENE 28 35 15 19 1019.4 1018.2 0.0
16/10:00am 21.3 14.4 4.4 33 8.4 ENE 30 39 16 21 1019.3 1018.1 0.0
16/09:30am 19.1 12.5 4.1 37 7.3 ENE 28 39 15 21 1019.4 1018.2 0.0
16/09:00am 18.4 11.4 4.2 39 6.9 ENE 30 39 16 21 1020.3 1019.1 0.0
16/08:30am 17.5 11.1 5.1 44 6.1 ENE 28 37 15 20 1020.3 1019.1 0.0
16/08:00am 17.0 10.4 4.3 43 6.1 NE 28 43 15 23 1020.3 1019.1 0.0
16/07:30am 16.9 11.5 4.6 44 6.0 ENE 22 30 12 16 1020.6 1019.5 0.0
16/07:00am 16.3 10.6 5.0 47 5.5 E 24 33 13 18 1020.3 1019.1 0.0
16/06:30am 15.2 10.5 6.0 54 4.5 ENE 20 28 11 15 1020.2 1019.0 0.0
16/06:00am 16.0 11.1 4.1 45 5.7 E 19 26 10 14 1020.1 1018.9 0.0
16/05:30am 15.6 10.1 4.0 46 5.5 E 22 28 12 15 1018.8 1017.6 0.0
16/05:00am 15.6 10.4 3.7 45 5.6 E 20 30 11 16 1019.2 1018.0 0.0
16/04:30am 15.4 10.4 3.5 45 5.6 ENE 19 24 10 13 1018.9 1017.7 0.0
16/04:00am 15.6 8.9 3.4 44 5.7 E 28 35 15 19 1018.3 1017.1 0.0
16/03:30am 15.5 8.7 3.0 43 5.8 E 28 35 15 19 1018.1 1016.9 0.0
16/03:00am 15.9 9.4 2.7 41 6.1 E 26 35 14 19 1019.1 1017.9 0.0
16/02:30am 16.1 10.0 2.5 40 6.3 E 24 32 13 17 1018.9 1017.7 0.0
16/02:00am 16.3 10.1 2.3 39 6.4 E 24 32 13 17 1019.1 1017.9 0.0
16/01:30am 16.1 10.2 1.8 38 6.5 E 22 30 12 16 1019.0 1017.8 0.0
16/01:00am 16.5 9.0 1.0 35 6.9 E 30 39 16 21 1018.2 1017.0 0.0
16/12:30am 16.6 8.8 -0.6 31 7.5 E 30 39 16 21 1019.1 1017.9 0.0
16/12:00am 16.9 10.2 -1.2 29 7.8 E 24 32 13 17 1019.9 1018.7 0.0
 
Date/Time
WST
Temp
°C
App
Temp
°C
Dew
Point
Rel
Hum
%
Delta-T
°C
Wind Press
QNH
hPa
Press
MSL
hPa
Rain
since 9 am
mm
Dir
 
Spd
km/h
Gust
km/h
Spd
kts
Gust
kts
15/11:30pm 16.9 11.1 -1.7 28 7.9 E 19 22 10 12 1020.2 1019.0 0.0
15/11:00pm 15.4 10.7 -2.1 30 7.3 E 13 17 7 9 1020.7 1019.6 0.0
15/10:30pm 15.2 10.9 -1.8 31 7.1 E 11 13 6 7 1021.1 1019.9 0.0
15/10:00pm 15.5 11.2 -2.0 30 7.3 E 11 13 6 7 1021.2 1020.0 0.0
15/09:30pm 16.8 12.1 -1.8 28 7.9 E 13 15 7 8 1021.3 1020.1 0.0
15/09:00pm 17.4 13.1 -1.8 27 8.2 E 11 13 6 7 1021.2 1020.0 0.0
15/08:30pm 18.7 14.0 -1.7 25 8.8 E 13 17 7 9 1021.1 1019.9 0.0
15/08:00pm 19.2 14.6 -1.3 25 9.0 ESE 13 15 7 8 1021.1 1019.9 0.0
15/07:30pm 19.6 14.9 -1.5 24 9.2 ESE 13 17 7 9 1020.8 1019.7 0.0
15/07:00pm 20.2 15.6 -1.0 24 9.4 ESE 13 17 7 9 1020.7 1019.6 0.0
15/06:30pm 21.2 16.6 -1.3 22 10.0 ESE 13 15 7 8 1020.4 1019.2 0.0
15/06:00pm 22.1 16.7 -1.2 21 10.5 E 17 20 9 11 1020.1 1018.9 0.0
15/05:30pm 23.2 17.3 -2.4 18 11.4 E 19 24 10 13 1019.8 1018.6 0.0
15/05:00pm 23.8 17.6 -3.5 16 11.9 E 20 28 11 15 1019.6 1018.4 0.0
15/04:30pm 24.3 18.4 -2.3 17 11.9 E 19 24 10 13 1019.5 1018.3 0.0
15/04:00pm 24.9 18.8 -2.6 16 12.3 E 20 28 11 15 1019.5 1018.3 0.0
15/03:30pm 24.7 19.0 -0.4 19 11.7 ESE 19 30 10 16 1019.6 1018.4 0.0
15/03:00pm 24.6 20.3 -2.0 17 12.0 E 11 15 6 8 1020.0 1018.8 0.0
15/02:30pm 24.6 19.5 -2.0 17 12.0 ENE 15 20 8 11 1020.2 1019.0 0.0
15/02:00pm 24.7 18.4 -1.2 18 11.9 E 22 32 12 17 1020.5 1019.3 0.0
15/01:30pm 24.2 18.5 0.5 21 11.2 ESE 20 30 11 16 1020.9 1019.8 0.0
15/01:00pm 24.2 19.3 1.8 23 10.8 ESE 17 37 9 20 1021.4 1020.2 0.0
15/12:30pm 24.0 18.5 1.6 23 10.8 ESE 20 32 11 17 1021.8 1020.6 0.0
15/12:00pm 22.5 17.6 2.1 26 9.8 ENE 17 22 9 12 1022.3 1021.1 0.0
15/11:30am 21.9 17.5 2.6 28 9.3 NE 15 20 8 11 1022.9 1021.8 0.0
15/11:00am 20.5 15.3 2.3 30 8.6 E 19 26 10 14 1023.7 1022.5 0.0
15/10:30am 20.2 14.6 3.4 33 8.1 E 22 32 12 17 1024.1 1022.9 0.0
15/10:00am 18.7 12.8 3.7 37 7.2 E 24 32 13 17 1024.3 1023.1 0.0
15/09:30am 18.3 12.4 4.1 39 6.9 E 24 33 13 18 1024.4 1023.3 0.0
15/09:00am 17.7 12.3 4.3 41 6.5 E 22 28 12 15 1024.5 1023.4 0.0
15/08:30am 16.3 9.7 4.4 45 5.7 E 28 39 15 21 1024.3 1023.1 0.0
15/08:00am 15.4 9.1 3.9 46 5.4 ENE 26 35 14 19 1024.4 1023.3 0.0
15/07:30am 14.1 7.4 3.8 50 4.8 E 28 37 15 20 1024.2 1023.0 0.0
15/07:00am 13.3 7.4 3.9 53 4.3 E 24 32 13 17 1023.7 1022.5 0.0
15/06:30am 12.3 6.7 3.3 54 4.1 E 22 28 12 15 1023.0 1021.9 0.0
15/06:00am 11.9 7.5 2.9 54 4.0 E 15 22 8 12 1023.0 1021.9 0.0
15/05:30am 11.8 7.5 1.2 48 4.6 ENE 13 19 7 10 1022.4 1021.2 0.0
15/05:00am 12.7 7.7 1.1 45 5.0 ESE 17 22 9 12 1021.8 1020.6 0.0
15/04:30am 12.9 8.5 0.6 43 5.3 ESE 13 19 7 10 1021.5 1020.3 0.0
15/04:00am 13.4 8.6 0.1 40 5.7 ESE 15 17 8 9 1021.4 1020.2 0.0
15/03:30am 14.1 8.3 -0.4 37 6.2 ESE 20 28 11 15 1020.8 1019.7 0.0
15/03:00am 13.9 8.9 -1.3 35 6.3 SE 15 20 8 11 1020.8 1019.7 0.0
15/02:30am 14.0 9.7 -2.0 33 6.6 ESE 11 15 6 8 1020.9 1019.8 0.0
15/02:00am 14.6 9.9 -1.9 32 6.8 ESE 13 17 7 9 1021.2 1020.0 0.0
15/01:30am 15.0 10.3 -2.0 31 7.1 ESE 13 19 7 10 1021.3 1020.1 0.0
15/01:00am 14.2 10.1 -3.1 30 6.9 SE 9 11 5 6 1021.3 1020.1 0.0
15/12:30am 15.4 10.5 -3.0 28 7.5 SE 13 15 7 8 1021.5 1020.3 0.0
15/12:00am 16.5 10.5 -3.0 26 8.0 SE 19 24 10 13 1021.7 1020.5 0.0
 
Date/Time
WST
Temp
°C
App
Temp
°C
Dew
Point
Rel
Hum
%
Delta-T
°C
Wind Press
QNH
hPa
Press
MSL
hPa
Rain
since 9 am
mm
Dir
 
Spd
km/h
Gust
km/h
Spd
kts
Gust
kts
14/11:30pm 16.7 11.2 -2.4 27 8.0 SE 17 24 9 13 1021.8 1020.6 0.0
14/11:00pm 17.3 11.8 -1.9 27 8.1 SE 17 20 9 11 1021.9 1020.7 0.0
14/10:30pm 17.0 12.6 0.2 32 7.4 SE 13 17 7 9 1022.1 1020.9 0.0
14/10:00pm 17.2 13.2 0.8 33 7.3 SSE 11 15 6 8 1022.3 1021.1 0.0
14/09:30pm 17.8 13.9 0.9 32 7.7 SSE 11 13 6 7 1022.3 1021.1 0.0
14/09:00pm 18.5 14.5 0.6 30 8.1 SSE 11 15 6 8 1022.5 1021.4 0.0
14/08:30pm 19.2 15.2 0.8 29 8.4 SSE 11 13 6 7 1022.4 1021.2 0.0
14/08:00pm 20.2 15.9 1.1 28 8.8 SSE 13 17 7 9 1022.0 1020.8 0.0
14/07:30pm 20.9 16.3 1.7 28 9.1 S 15 19 8 10 1021.8 1020.6 0.0
14/07:00pm 21.5 16.6 1.7 27 9.4 S 17 24 9 13 1021.5 1020.3 0.0
14/06:30pm 22.1 17.2 1.7 26 9.7 S 17 22 9 12 1020.9 1019.8 0.0
14/06:00pm 22.7 17.4 1.7 25 10.0 S 19 26 10 14 1020.6 1019.5 0.0
14/05:30pm 23.7 17.1 2.0 24 10.5 S 26 32 14 17 1020.1 1018.9 0.0
14/05:00pm 24.6 18.8 2.1 23 11.0 S 22 30 12 16 1019.9 1018.7 0.0
14/04:30pm 25.3 19.2 2.7 23 11.2 S 24 32 13 17 1019.6 1018.4 0.0
14/04:00pm 26.0 20.5 3.9 24 11.2 SSE 22 32 12 17 1019.3 1018.1 0.0
14/03:30pm 25.7 20.5 3.6 24 11.2 S 20 30 11 16 1019.3 1018.1 0.0
14/03:00pm 26.0 19.7 3.9 24 11.2 S 26 32 14 17 1019.3 1018.1 0.0
14/02:30pm 26.3 21.9 4.7 25 11.2 SSW 17 22 9 12 1019.3 1018.1 0.0
14/02:00pm 26.4 23.5 4.8 25 11.2 SW 9 22 5 12 1019.2 1018.0 0.0
14/01:30pm 25.8 22.8 4.3 25 11.0 SW 9 17 5 9 1019.5 1018.3 0.0
14/01:00pm 25.9 22.6 4.4 25 11.0 WSW 11 20 6 11 1019.8 1018.6 0.0
14/12:30pm 25.3 22.1 5.0 27 10.5 S 11 20 6 11 1020.2 1019.0 0.0
14/12:00pm 24.5 22.3 5.3 29 9.9 SE 6 17 3 9 1020.5 1019.3 0.0
14/11:30am 24.2 21.3 4.6 28 10.0 S 9 19 5 10 1020.7 1019.6 0.0
14/11:00am 23.2 20.3 6.5 34 8.7 ESE 11 20 6 11 1021.4 1020.2 0.0
14/10:30am 22.5 19.8 7.5 38 8.0 ESE 11 15 6 8 1021.9 1020.7 0.0
14/10:00am 21.5 18.0 7.3 40 7.5 E 15 22 8 12 1022.1 1020.9 0.0
14/09:30am 20.2 16.4 7.6 44 6.6 E 17 24 9 13 1022.1 1020.9 0.0
14/09:00am 19.1 14.8 7.8 48 5.9 E 20 28 11 15 1022.2 1021.0 0.0
14/08:30am 18.9 15.0 8.6 51 5.5 ESE 19 28 10 15 1022.3 1021.1 0.0
14/08:00am 17.7 13.1 8.0 53 5.0 E 22 32 12 17 1022.2 1021.0 0.0
14/07:30am 16.6 12.3 7.8 56 4.5 E 20 28 11 15 1022.0 1020.8 0.0
14/07:00am 15.4 11.1 7.2 58 4.1 E 19 26 10 14 1021.7 1020.5 0.0
14/06:30am 14.5 10.3 5.6 55 4.3 ESE 17 24 9 13 1021.1 1019.9 0.0
14/06:00am 13.2 9.8 4.1 54 4.2 ESE 11 15 6 8 1020.7 1019.6 0.0
14/05:30am 13.6 9.9 4.2 53 4.4 SE 13 17 7 9 1020.6 1019.5 0.0
14/05:00am 13.6 9.8 3.9 52 4.5 SE 13 15 7 8 1020.5 1019.3 0.0
14/04:30am 13.2 9.6 3.0 50 4.6 SSE 11 13 6 7 1020.2 1019.0 0.0
14/04:00am 13.7 10.4 2.6 47 5.0 S 9 11 5 6 1019.8 1018.6 0.0
14/03:30am 14.1 10.5 2.7 46 5.2 SE 11 13 6 7 1019.2 1018.0 0.0
14/03:00am 14.9 11.2 2.4 43 5.7 SE 11 13 6 7 1018.9 1017.7 0.0
14/02:30am 15.5 11.8 2.3 41 6.0 SE 11 15 6 8 1018.6 1017.4 0.0
14/02:00am 15.6 11.3 1.3 38 6.4 SE 13 15 7 8 1018.9 1017.7 0.0
14/01:30am 16.7 12.8 1.2 35 7.0 SE 11 13 6 7 1019.1 1017.9 0.0
14/01:00am 17.7 13.1 1.7 34 7.3 SSE 15 19 8 10 1019.2 1018.0 0.0
14/12:30am 18.0 13.8 1.5 33 7.6 S 13 17 7 9 1019.1 1017.9 0.0
14/12:00am 18.1 14.2 1.2 32 7.7 SSE 11 15 6 8 1019.2 1018.0 0.0
 
Date/Time
WST
Temp
°C
App
Temp
°C
Dew
Point
Rel
Hum
%
Delta-T
°C
Wind Press
QNH
hPa
Press
MSL
hPa
Rain
since 9 am
mm
Dir
 
Spd
km/h
Gust
km/h
Spd
kts
Gust
kts
13/11:30pm 19.0 15.1 1.1 30 8.2 SSE 11 13 6 7 1019.1 1017.9 0.0
13/11:00pm 20.4 15.4 1.3 28 8.9 S 17 20 9 11 1019.0 1017.8 0.0
13/10:30pm 21.8 15.9 1.5 26 9.6 S 22 32 12 17 1018.9 1017.7 0.0
13/10:00pm 21.6 16.8 0.2 24 9.8 S 15 19 8 10 1019.0 1017.8 0.0
13/09:30pm 20.0 15.9 -0.1 26 9.1 S 11 13 6 7 1019.0 1017.8 0.0
13/09:00pm 20.0 16.3 -0.1 26 9.1 S 9 11 5 6 1019.1 1017.9 0.0
13/08:30pm 21.0 17.2 -0.9 23 9.8 SSW 9 11 5 6 1019.0 1017.8 0.0
13/08:00pm 21.4 17.8 -1.8 21 10.2 SSW 7 9 4 5 1018.9 1017.7 0.0
13/07:30pm 23.2 19.7 -1.7 19 11.2 SSW 7 9 4 5 1018.6 1017.4 0.0
13/07:00pm 24.3 20.3 -2.3 17 11.9 WSW 9 11 5 6 1018.2 1017.0 0.0
13/06:30pm 25.8 21.1 -1.9 16 12.7 WSW 13 19 7 10 1017.9 1016.7 0.0
13/06:00pm 27.4 21.9 -2.4 14 13.7 WSW 17 22 9 12 1017.5 1016.3 0.0
13/05:30pm 28.6 22.5 -2.5 13 14.4 WSW 20 28 11 15 1017.2 1016.0 0.0
13/05:00pm 29.9 23.4 -2.6 12 15.1 WSW 22 37 12 20 1016.8 1015.5 0.0
13/04:30pm 30.5 22.8 -3.3 11 15.6 WSW 28 46 15 25 1016.3 1015.1 0.0
13/04:28pm 30.7 22.8 -4.4 10 16.0 WSW 28 46 15 25 1016.2 1015.0 0.0
13/04:00pm 30.9 22.3 -4.2 10 16.0 WSW 32 43 17 23 1016.1 1014.9 0.0
13/03:30pm 31.3 24.0 -2.6 11 16.0 W 26 35 14 19 1016.0 1014.8 0.0

Other Formats:

Comma delimited format used in spreadsheet applications
http://www.bom.gov.au/fwo/IDW60801/IDW60801.94449.axf

JavaScript Object Notation format (JSON) in row-major order
http://www.bom.gov.au/fwo/IDW60801/IDW60801.94449.json